Hatchechubbee, Alabama
Current Conditions -  °F | °C
As of 11:58 PM on Saturday 22 Nov 2014 (Local Time) from KLSF Reporting Station
Light Rain Light Rain  
Wind Chill: 58°   Ceiling: 1300
Heat Index: 58°   Visibility: 10mi
Dew Point: 54°   Wind: 5mph
Humidity: 85%   Direction: 70°ENE
Pressure: 30.1"   Gusts: NA
Location:  32.27°N, 85.28°W
Report Text: KLSF 230558Z AUTO 07004KT 10SM -RA OVC013 15/12 A3010 RMK AO2 RAB0551 SLP195 P0000 60000 T01460121 10152 20139 57026
Loading
Personal Weather Stations






























Interactive Weather Map New forecast layout! Learn more

10-Day Weather Forecast

Advertisements
Track Severe Weather on mobile